Time;durP1;ratioP1;P1;durP2;ratioP2;P2;SDS_P1;SDS_P2;PMS_P1;PMS_P2;Temp;Humidity;BMP_temperature;BMP_pressure;BME280_temperature;BME280_humidity;BME280_pressure;Samples;Min_cycle;Max_cycle;Signal;HPM_P1;HPM_P2
2022/07/17 00:01:40;;;;;;;2.70;1.00;;;15.30;99.90;;;;;;5060021;28;20465;-87
2022/07/17 00:04:07;;;;;;;1.23;0.87;;;15.30;99.90;;;;;;5056079;28;20506;-89
2022/07/17 00:06:34;;;;;;;1.13;0.97;;;15.30;99.90;;;;;;5060641;28;20456;-89
2022/07/17 00:09:02;;;;;;;1.33;1.23;;;15.30;99.90;;;;;;5060704;28;20456;-87
2022/07/17 00:11:30;;;;;;;1.47;0.97;;;15.30;99.90;;;;;;5046955;28;20436;-88
2022/07/17 00:13:57;;;;;;;1.07;0.80;;;15.30;99.90;;;;;;5054721;28;20605;-88
2022/07/17 00:16:24;;;;;;;1.60;1.30;;;15.30;99.90;;;;;;5062641;28;20482;-89
2022/07/17 00:18:51;;;;;;;2.63;1.40;;;15.40;99.90;;;;;;5062420;28;20456;-88
2022/07/17 00:21:18;;;;;;;1.47;1.37;;;15.40;99.90;;;;;;5057680;28;20456;-89
2022/07/17 00:23:45;;;;;;;1.33;0.83;;;15.40;99.90;;;;;;5063974;28;20517;-88
2022/07/17 00:26:14;;;;;;;0.70;0.70;;;15.50;99.90;;;;;;5049782;28;20462;-87
2022/07/17 00:28:41;;;;;;;1.30;1.20;;;15.50;99.90;;;;;;5058515;28;20504;-88
2022/07/17 00:31:08;;;;;;;0.80;0.80;;;15.40;99.90;;;;;;5060534;28;20451;-87
2022/07/17 00:33:35;;;;;;;2.20;0.80;;;15.40;99.90;;;;;;5057749;28;20538;-86
2022/07/17 00:36:03;;;;;;;1.90;0.90;;;15.40;99.90;;;;;;5057674;28;20464;-88
2022/07/17 00:38:29;;;;;;;1.90;0.90;;;15.30;99.90;;;;;;5062635;28;20460;-87
2022/07/17 00:40:58;;;;;;;3.50;0.80;;;15.30;99.90;;;;;;5052447;28;20478;-88
2022/07/17 00:43:27;;;;;;;1.00;0.90;;;15.30;99.90;;;;;;5063543;28;20537;-87
2022/07/17 00:45:58;;;;;;;1.10;0.87;;;15.20;99.90;;;;;;5055640;28;20453;-87
2022/07/17 00:48:26;;;;;;;1.30;1.20;;;15.20;99.90;;;;;;5052164;28;20505;-87
2022/07/17 00:50:53;;;;;;;0.80;0.80;;;15.20;99.90;;;;;;5052107;28;20948;-87
2022/07/17 00:53:20;;;;;;;3.40;1.23;;;15.10;99.90;;;;;;5053171;28;20546;-87
2022/07/17 00:55:49;;;;;;;1.20;1.10;;;15.00;99.90;;;;;;5060711;28;20585;-90
2022/07/17 00:58:20;;;;;;;2.20;1.43;;;15.10;99.90;;;;;;5066278;28;20851;-87
2022/07/17 01:00:50;;;;;;;1.60;1.50;;;15.00;99.90;;;;;;5069901;28;20537;-90
2022/07/17 01:03:18;;;;;;;2.37;1.53;;;14.90;99.90;;;;;;5062217;28;20468;-89
2022/07/17 01:05:45;;;;;;;1.33;0.93;;;14.90;99.90;;;;;;5063685;28;20470;-89
2022/07/17 01:08:13;;;;;;;1.33;1.13;;;14.90;99.90;;;;;;5062694;28;20832;-88
2022/07/17 01:10:40;;;;;;;6.33;0.80;;;15.00;99.90;;;;;;5068309;28;20515;-88
2022/07/17 01:13:08;;;;;;;3.13;1.27;;;14.90;99.90;;;;;;5067774;28;20525;-89
2022/07/17 01:15:38;;;;;;;3.03;0.83;;;14.90;99.90;;;;;;5072332;28;20491;-89
2022/07/17 01:18:08;;;;;;;1.20;0.73;;;15.00;99.90;;;;;;5079701;28;20533;-87
2022/07/17 01:20:36;;;;;;;1.20;0.93;;;15.10;99.90;;;;;;5087259;28;20502;-89
2022/07/17 01:23:05;;;;;;;2.03;1.30;;;15.20;99.90;;;;;;5064785;28;20539;-88
2022/07/17 01:25:33;;;;;;;2.60;0.97;;;15.20;99.90;;;;;;5070895;28;20463;-89
2022/07/17 01:28:00;;;;;;;2.30;1.10;;;15.10;99.90;;;;;;5067736;28;20506;-88
2022/07/17 01:30:28;;;;;;;1.13;1.03;;;15.00;99.90;;;;;;5072409;28;20496;-88
2022/07/17 01:32:55;;;;;;;1.40;1.10;;;15.00;99.90;;;;;;5070061;28;20968;-88
2022/07/17 01:35:22;;;;;;;0.87;0.70;;;15.00;99.90;;;;;;5070653;28;20485;-88
2022/07/17 01:37:50;;;;;;;1.00;1.00;;;14.90;99.90;;;;;;5064602;28;20464;-90
2022/07/17 01:40:19;;;;;;;4.57;1.80;;;14.80;99.90;;;;;;5056099;28;20496;-88
2022/07/17 01:42:48;;;;;;;2.77;1.20;;;14.80;99.90;;;;;;5065268;28;20553;-87
2022/07/17 01:45:16;;;;;;;2.57;1.20;;;14.80;99.90;;;;;;5071214;28;20470;-87
2022/07/17 01:47:44;;;;;;;0.93;0.93;;;14.60;99.90;;;;;;5069226;28;20542;-88
2022/07/17 01:50:12;;;;;;;1.20;1.10;;;14.40;99.90;;;;;;5070989;28;20466;-90
2022/07/17 01:52:41;;;;;;;1.07;0.80;;;14.20;99.90;;;;;;5068826;28;20462;-89
2022/07/17 01:55:10;;;;;;;1.20;0.90;;;14.10;99.90;;;;;;5072418;28;20485;-88
2022/07/17 01:57:38;;;;;;;1.13;0.93;;;14.00;99.90;;;;;;5068041;28;20528;-89
2022/07/17 02:00:11;;;;;;;1.63;1.00;;;13.90;99.90;;;;;;5068171;28;20586;-87
2022/07/17 02:02:38;;;;;;;1.47;1.20;;;13.80;99.90;;;;;;5068500;28;20584;-87
2022/07/17 02:05:05;;;;;;;1.30;1.00;;;13.80;99.90;;;;;;5066716;28;20492;-87
2022/07/17 02:07:33;;;;;;;0.80;0.73;;;13.90;99.90;;;;;;5056439;28;20457;-88
2022/07/17 02:10:00;;;;;;;0.70;0.70;;;13.90;99.90;;;;;;5064977;28;20458;-87
2022/07/17 02:12:27;;;;;;;1.30;0.80;;;14.00;99.90;;;;;;5056294;28;20462;-88
2022/07/17 02:14:56;;;;;;;0.83;0.70;;;14.00;99.90;;;;;;5059463;28;20495;-90
2022/07/17 02:17:23;;;;;;;2.50;1.27;;;14.00;99.90;;;;;;5058196;28;22394;-88
2022/07/17 02:19:50;;;;;;;5.17;1.40;;;13.90;99.90;;;;;;5061900;28;20470;-88
2022/07/17 02:22:17;;;;;;;2.43;1.70;;;13.90;99.90;;;;;;5067242;28;20874;-89
2022/07/17 02:24:44;;;;;;;2.17;0.90;;;13.70;99.90;;;;;;5062408;28;20522;-89
2022/07/17 02:27:11;;;;;;;0.90;0.60;;;13.70;99.90;;;;;;5066271;28;20522;-89
2022/07/17 02:29:38;;;;;;;0.80;0.80;;;13.50;99.90;;;;;;5066170;28;20457;-89
2022/07/17 02:32:07;;;;;;;1.03;0.80;;;13.40;99.90;;;;;;5061888;28;20952;-88
2022/07/17 02:34:34;;;;;;;2.10;1.00;;;13.40;99.90;;;;;;5055417;28;20562;-88
2022/07/17 02:37:01;;;;;;;0.80;0.70;;;13.30;99.90;;;;;;5052133;28;20445;-88
2022/07/17 02:39:28;;;;;;;1.17;1.07;;;13.50;99.90;;;;;;5065525;28;20867;-88
2022/07/17 02:41:55;;;;;;;0.80;0.80;;;13.40;99.90;;;;;;5063020;28;20443;-89
2022/07/17 02:44:22;;;;;;;1.30;0.90;;;13.30;99.90;;;;;;5067772;28;21119;-90
2022/07/17 02:46:49;;;;;;;1.40;1.10;;;13.30;99.90;;;;;;5067889;28;21506;-88
2022/07/17 02:49:17;;;;;;;2.33;0.90;;;13.30;99.90;;;;;;5076746;28;20458;-88
2022/07/17 02:51:44;;;;;;;1.40;0.90;;;13.20;99.90;;;;;;5061955;28;20506;-89
2022/07/17 02:54:11;;;;;;;1.97;0.90;;;13.10;99.90;;;;;;5067475;28;20485;-89
2022/07/17 02:56:38;;;;;;;1.07;0.97;;;13.00;99.90;;;;;;5062116;28;20476;-90
2022/07/17 02:59:05;;;;;;;1.10;0.80;;;13.00;99.90;;;;;;5066749;28;20947;-88
2022/07/17 03:01:32;;;;;;;1.53;1.33;;;13.00;99.90;;;;;;5064112;28;20461;-88
2022/07/17 03:03:59;;;;;;;1.90;1.37;;;13.00;99.90;;;;;;5063327;28;20467;-87
2022/07/17 03:06:27;;;;;;;1.63;1.03;;;13.00;99.90;;;;;;5060557;28;20460;-87
2022/07/17 03:08:54;;;;;;;3.60;2.80;;;12.90;99.90;;;;;;5061110;28;20516;-88
2022/07/17 03:11:21;;;;;;;3.57;2.83;;;12.80;99.90;;;;;;5060546;28;20507;-89
2022/07/17 03:13:48;;;;;;;2.60;2.03;;;12.80;99.90;;;;;;5062819;28;20487;-89
2022/07/17 03:16:15;;;;;;;1.80;1.70;;;12.80;99.90;;;;;;5059233;28;20487;-88
2022/07/17 03:18:42;;;;;;;1.87;1.20;;;12.70;99.90;;;;;;5052499;28;21020;-87
2022/07/17 03:21:09;;;;;;;1.53;1.27;;;12.70;99.90;;;;;;5058276;28;20468;-89
2022/07/17 03:23:37;;;;;;;1.10;1.00;;;12.70;99.90;;;;;;5066486;28;20672;-88
2022/07/17 03:26:04;;;;;;;0.80;0.80;;;12.70;99.90;;;;;;5057527;28;20529;-88
2022/07/17 03:28:31;;;;;;;3.33;0.90;;;12.60;99.90;;;;;;5052975;28;20524;-87
2022/07/17 03:30:58;;;;;;;0.90;0.73;;;12.70;99.90;;;;;;5062083;28;20886;-90
2022/07/17 03:33:25;;;;;;;1.13;0.90;;;12.60;99.90;;;;;;5058335;28;20491;-88
2022/07/17 03:35:52;;;;;;;1.20;1.10;;;12.60;99.90;;;;;;5055156;28;20877;-90
2022/07/17 03:38:19;;;;;;;1.73;1.00;;;12.60;99.90;;;;;;5064152;28;20452;-88
2022/07/17 03:40:48;;;;;;;1.73;0.90;;;12.70;99.90;;;;;;5059237;28;23174;-87
2022/07/17 03:43:15;;;;;;;1.00;0.77;;;12.70;99.90;;;;;;5052564;28;20523;-88
2022/07/17 03:45:42;;;;;;;1.33;1.23;;;12.80;99.90;;;;;;5063866;28;20461;-90
2022/07/17 03:48:10;;;;;;;1.67;1.57;;;12.80;99.90;;;;;;5062085;28;21018;-87
2022/07/17 03:50:37;;;;;;;1.33;0.80;;;12.90;99.90;;;;;;5057535;28;20454;-89
2022/07/17 03:53:04;;;;;;;1.90;0.90;;;12.90;99.90;;;;;;5060273;28;20529;-90
2022/07/17 03:55:31;;;;;;;0.63;0.60;;;13.00;99.90;;;;;;5053178;28;20494;-88
2022/07/17 03:57:59;;;;;;;0.83;0.83;;;13.00;99.90;;;;;;5054878;28;20463;-88
2022/07/17 04:00:26;;;;;;;1.73;1.10;;;13.10;99.90;;;;;;5052927;28;20987;-87
2022/07/17 04:02:53;;;;;;;1.43;1.33;;;13.20;99.90;;;;;;5057171;28;20990;-87
2022/07/17 04:05:21;;;;;;;0.80;0.80;;;13.20;99.90;;;;;;5057351;28;20547;-89
2022/07/17 04:07:48;;;;;;;1.03;0.90;;;13.30;99.90;;;;;;5057965;28;20470;-88
2022/07/17 04:10:16;;;;;;;1.00;0.87;;;13.30;99.90;;;;;;5062178;28;20976;-91
2022/07/17 04:12:43;;;;;;;1.00;0.90;;;13.30;99.90;;;;;;5054313;28;20554;-88
2022/07/17 04:15:12;;;;;;;0.70;0.70;;;13.40;99.90;;;;;;5058932;28;20483;-88
2022/07/17 04:17:39;;;;;;;0.80;0.80;;;13.40;99.90;;;;;;5057397;28;20461;-89
2022/07/17 04:20:07;;;;;;;1.50;1.20;;;13.40;99.90;;;;;;5065577;28;21026;-89
2022/07/17 04:22:34;;;;;;;1.50;1.30;;;13.50;99.90;;;;;;5060667;28;20476;-87
2022/07/17 04:25:01;;;;;;;1.20;1.00;;;13.50;99.90;;;;;;5059102;28;20458;-88
2022/07/17 04:27:28;;;;;;;1.13;1.00;;;13.60;99.90;;;;;;5056433;28;21140;-88
2022/07/17 04:29:55;;;;;;;0.87;0.80;;;13.60;99.90;;;;;;5064465;28;20469;-88
2022/07/17 04:32:23;;;;;;;0.83;0.70;;;13.60;99.90;;;;;;5055859;28;20462;-87
2022/07/17 04:34:50;;;;;;;1.47;1.37;;;13.60;99.90;;;;;;5055053;28;20487;-90
2022/07/17 04:37:17;;;;;;;1.13;1.03;;;13.70;99.90;;;;;;5063622;28;20432;-89
2022/07/17 04:39:44;;;;;;;1.13;0.87;;;13.80;99.90;;;;;;5056746;28;20470;-89
2022/07/17 04:42:11;;;;;;;1.07;0.80;;;13.90;99.90;;;;;;5062266;28;21008;-91
2022/07/17 04:44:38;;;;;;;1.87;1.30;;;14.00;99.90;;;;;;5057315;28;20466;-89
2022/07/17 04:47:05;;;;;;;0.80;0.80;;;14.20;99.90;;;;;;5060709;28;20908;-89
2022/07/17 04:49:34;;;;;;;0.93;0.83;;;14.30;99.90;;;;;;5057650;28;20468;-89
2022/07/17 04:52:01;;;;;;;1.10;0.87;;;14.30;99.90;;;;;;5061159;28;20504;-91
2022/07/17 04:54:28;;;;;;;3.23;1.10;;;14.40;99.90;;;;;;5065391;28;20527;-88
2022/07/17 04:56:55;;;;;;;1.67;0.87;;;14.60;99.90;;;;;;5055086;28;21195;-88
2022/07/17 04:59:22;;;;;;;1.17;1.07;;;14.80;99.90;;;;;;5057291;28;20507;-90
2022/07/17 05:01:48;;;;;;;1.67;0.93;;;14.90;99.90;;;;;;5056578;28;20469;-90
2022/07/17 05:04:15;;;;;;;1.60;1.43;;;15.10;99.90;;;;;;5058298;28;20480;-88
2022/07/17 05:06:47;;;;;;;1.23;1.13;;;15.10;99.90;;;;;;5055276;28;20474;-89
2022/07/17 05:09:14;;;;;;;2.07;1.20;;;15.30;99.90;;;;;;5062776;28;20931;-89
2022/07/17 05:11:41;;;;;;;1.37;0.90;;;15.50;99.90;;;;;;5061734;28;20539;-88
2022/07/17 05:14:08;;;;;;;1.43;1.00;;;15.60;99.90;;;;;;5059571;28;20478;-88
2022/07/17 05:16:35;;;;;;;1.53;1.03;;;15.70;99.90;;;;;;5056242;28;20494;-89
2022/07/17 05:19:02;;;;;;;1.40;0.90;;;15.80;99.90;;;;;;5056770;28;20464;-89
2022/07/17 05:21:29;;;;;;;1.50;1.07;;;15.70;99.90;;;;;;5060522;28;21204;-90
2022/07/17 05:23:57;;;;;;;1.53;1.40;;;15.90;99.90;;;;;;5058802;28;20463;-88
2022/07/17 05:26:24;;;;;;;4.10;1.20;;;16.10;99.90;;;;;;5064769;28;20480;-88
2022/07/17 05:28:52;;;;;;;1.57;1.47;;;16.10;99.90;;;;;;5061590;28;20470;-88
2022/07/17 05:31:19;;;;;;;1.10;0.80;;;16.30;99.90;;;;;;5054792;28;20440;-88
2022/07/17 05:33:46;;;;;;;1.77;0.77;;;16.30;99.90;;;;;;5062300;28;20455;-87
2022/07/17 05:36:13;;;;;;;1.77;1.20;;;16.30;99.90;;;;;;5061129;28;20479;-87
2022/07/17 05:38:40;;;;;;;2.30;1.10;;;16.20;99.90;;;;;;5063673;28;20517;-87
2022/07/17 05:41:08;;;;;;;1.13;0.90;;;16.20;99.90;;;;;;5066852;28;20504;-87
2022/07/17 05:43:35;;;;;;;2.90;1.20;;;16.20;99.90;;;;;;5063041;28;20471;-88
2022/07/17 05:46:02;;;;;;;1.73;0.97;;;16.30;99.90;;;;;;5073152;28;20471;-87
2022/07/17 05:48:31;;;;;;;0.90;0.90;;;16.50;99.90;;;;;;5083798;28;20509;-86
2022/07/17 05:50:59;;;;;;;1.57;1.47;;;16.80;99.90;;;;;;5071219;28;20464;-88
2022/07/17 05:53:26;;;;;;;2.10;0.80;;;16.60;99.90;;;;;;5068078;28;20451;-88
2022/07/17 05:55:53;;;;;;;1.20;1.10;;;16.60;99.90;;;;;;5067804;28;20851;-90
2022/07/17 05:58:21;;;;;;;1.20;1.10;;;16.70;99.90;;;;;;5063715;28;20543;-87
2022/07/17 06:00:49;;;;;;;3.50;1.07;;;16.80;99.90;;;;;;5066075;28;20459;-87
2022/07/17 06:03:16;;;;;;;1.50;1.20;;;17.00;99.90;;;;;;5065865;28;20865;-89
2022/07/17 06:05:43;;;;;;;1.47;1.30;;;17.10;99.90;;;;;;5067630;28;20888;-87
2022/07/17 06:08:10;;;;;;;2.33;1.50;;;17.10;99.90;;;;;;5067777;28;20476;-87
2022/07/17 06:10:38;;;;;;;1.33;1.23;;;17.30;99.90;;;;;;5059813;28;20514;-89
2022/07/17 06:13:05;;;;;;;4.50;1.00;;;17.50;99.90;;;;;;5058186;28;20957;-87
2022/07/17 06:15:33;;;;;;;1.13;0.90;;;17.70;99.90;;;;;;5064184;28;20544;-90
2022/07/17 06:18:01;;;;;;;0.97;0.97;;;17.70;99.90;;;;;;5058706;28;20459;-87
2022/07/17 06:20:29;;;;;;;0.87;0.87;;;18.10;99.90;;;;;;5057624;28;20548;-86
2022/07/17 06:22:56;;;;;;;1.20;1.10;;;18.20;99.90;;;;;;5054632;28;20462;-88
2022/07/17 06:25:23;;;;;;;1.10;1.00;;;18.40;99.90;;;;;;5060083;28;20559;-90
2022/07/17 06:27:51;;;;;;;2.37;1.50;;;18.70;99.90;;;;;;5058288;28;20572;-88
2022/07/17 06:30:18;;;;;;;2.73;1.53;;;18.80;99.90;;;;;;5060295;28;20486;-88
2022/07/17 06:32:52;;;;;;;6.30;1.10;;;18.70;99.90;;;;;;5054482;28;20463;-89
2022/07/17 06:35:19;;;;;;;1.43;1.00;;;18.40;99.90;;;;;;5055283;28;20572;-89
2022/07/17 06:37:46;;;;;;;0.93;0.80;;;18.30;99.90;;;;;;5054878;28;20460;-89
2022/07/17 06:40:13;;;;;;;1.93;1.03;;;18.40;99.90;;;;;;5059005;28;21071;-92
2022/07/17 06:42:40;;;;;;;1.27;1.13;;;18.40;99.90;;;;;;5057060;28;20513;-90
2022/07/17 06:45:08;;;;;;;0.97;0.97;;;18.60;99.90;;;;;;5057203;28;20460;-92
2022/07/17 06:47:38;;;;;;;0.60;0.60;;;18.80;99.90;;;;;;5057562;28;21001;-91
2022/07/17 06:50:08;;;;;;;1.07;0.70;;;19.20;99.90;;;;;;5058915;28;20497;-90
2022/07/17 06:52:35;;;;;;;0.90;0.73;;;19.30;99.00;;;;;;5060297;28;20460;-90
2022/07/17 06:55:02;;;;;;;1.17;1.07;;;19.30;99.50;;;;;;5058373;28;20475;-90
2022/07/17 06:57:29;;;;;;;1.23;0.80;;;19.30;98.70;;;;;;5052991;28;20517;-84
2022/07/17 06:59:57;;;;;;;0.70;0.70;;;19.70;98.50;;;;;;5053461;28;20523;-86
2022/07/17 07:02:24;;;;;;;1.17;0.90;;;19.70;97.40;;;;;;5061379;28;21457;-86
2022/07/17 07:04:51;;;;;;;0.80;0.80;;;19.70;97.70;;;;;;5057499;28;20561;-89
2022/07/17 07:07:19;;;;;;;1.40;0.83;;;20.00;96.50;;;;;;5057351;28;20462;-88
2022/07/17 07:09:46;;;;;;;1.00;0.90;;;19.80;97.10;;;;;;5062638;28;20493;-85
2022/07/17 07:12:13;;;;;;;1.17;0.90;;;19.70;95.60;;;;;;5063973;28;20935;-87
2022/07/17 07:14:40;;;;;;;0.80;0.80;;;20.00;97.20;;;;;;5052706;28;20541;-87
2022/07/17 07:17:07;;;;;;;0.87;0.70;;;20.30;95.70;;;;;;5056502;28;20485;-88
2022/07/17 07:19:34;;;;;;;4.20;0.80;;;20.30;96.30;;;;;;5054842;28;20531;-87
2022/07/17 07:22:01;;;;;;;1.83;1.17;;;20.50;96.60;;;;;;5056650;28;20520;-89
2022/07/17 07:24:30;;;;;;;0.90;0.87;;;20.40;95.80;;;;;;5053578;28;21217;-87
2022/07/17 07:26:57;;;;;;;2.70;1.10;;;20.60;96.20;;;;;;5057733;28;20465;-89
2022/07/17 07:29:24;;;;;;;0.87;0.87;;;20.60;95.70;;;;;;5063276;28;20557;-90
2022/07/17 07:31:51;;;;;;;1.50;1.03;;;20.90;95.10;;;;;;5060724;28;20474;-87
2022/07/17 07:34:18;;;;;;;0.80;0.70;;;21.30;94.00;;;;;;5056750;28;20518;-86
2022/07/17 07:36:45;;;;;;;1.27;1.10;;;21.20;92.70;;;;;;5058692;28;20551;-86
2022/07/17 07:39:12;;;;;;;3.03;0.80;;;21.10;92.40;;;;;;5056331;28;20467;-87
2022/07/17 07:41:41;;;;;;;2.50;0.90;;;21.30;92.00;;;;;;5050817;28;20520;-87
2022/07/17 07:44:08;;;;;;;0.60;0.60;;;21.30;91.50;;;;;;5060094;28;21117;-86
2022/07/17 07:46:35;;;;;;;0.97;0.63;;;21.60;92.50;;;;;;5050818;28;20944;-87
2022/07/17 07:49:02;;;;;;;0.80;0.50;;;21.50;89.90;;;;;;5047954;28;20456;-89
2022/07/17 07:51:29;;;;;;;0.60;0.60;;;21.80;92.20;;;;;;5056557;28;20995;-86
2022/07/17 07:53:56;;;;;;;1.53;0.77;;;21.50;89.10;;;;;;5053090;28;20556;-87
2022/07/17 07:56:23;;;;;;;0.60;0.60;;;21.80;90.90;;;;;;5067337;28;20472;-87
2022/07/17 07:58:52;;;;;;;0.60;0.60;;;21.80;87.70;;;;;;5055866;28;20459;-87
2022/07/17 08:01:19;;;;;;;0.60;0.60;;;21.40;89.00;;;;;;5065230;28;20464;-87
2022/07/17 08:03:46;;;;;;;3.73;1.00;;;21.70;86.70;;;;;;5065440;28;20877;-86
2022/07/17 08:06:14;;;;;;;0.60;0.57;;;21.80;87.50;;;;;;5066529;28;20465;-87
2022/07/17 08:08:41;;;;;;;0.77;0.70;;;21.70;85.20;;;;;;5063720;28;20464;-86
2022/07/17 08:11:10;;;;;;;1.03;0.70;;;21.70;87.90;;;;;;5055215;28;20506;-87
2022/07/17 08:13:37;;;;;;;0.70;0.60;;;22.10;89.90;;;;;;5056692;28;20480;-86
2022/07/17 08:16:06;;;;;;;1.40;0.70;;;22.00;87.00;;;;;;5058779;28;20492;-89
2022/07/17 08:18:34;;;;;;;0.60;0.50;;;22.00;85.80;;;;;;5056200;28;20461;-86
2022/07/17 08:21:01;;;;;;;0.60;0.60;;;22.20;84.60;;;;;;5056569;28;20457;-87
2022/07/17 08:23:28;;;;;;;0.60;0.50;;;22.10;82.90;;;;;;5050505;28;20812;-86
2022/07/17 08:25:55;;;;;;;1.23;0.60;;;22.20;87.50;;;;;;5053717;28;20499;-87
2022/07/17 08:28:22;;;;;;;0.60;0.60;;;22.50;81.70;;;;;;5053818;28;22450;-86
2022/07/17 08:30:49;;;;;;;0.50;0.50;;;22.90;83.10;;;;;;5055726;28;20509;-88
2022/07/17 08:33:17;;;;;;;0.60;0.50;;;23.00;78.50;;;;;;5054526;28;20468;-88
2022/07/17 08:35:45;;;;;;;0.60;0.60;;;23.30;77.80;;;;;;5048161;28;20511;-87
2022/07/17 08:38:12;;;;;;;0.50;0.50;;;23.40;79.30;;;;;;5054036;28;20560;-89
2022/07/17 08:40:40;;;;;;;0.80;0.50;;;23.50;77.20;;;;;;5056150;28;20463;-88
2022/07/17 08:43:08;;;;;;;0.80;0.73;;;23.50;77.00;;;;;;5061503;28;20753;-87
2022/07/17 08:45:36;;;;;;;0.60;0.60;;;23.50;74.70;;;;;;5070838;28;20465;-87
2022/07/17 08:48:04;;;;;;;1.23;0.63;;;23.40;80.40;;;;;;5067421;28;20456;-88
2022/07/17 08:50:33;;;;;;;0.63;0.63;;;23.30;73.10;;;;;;5059771;28;20940;-89
2022/07/17 08:53:02;;;;;;;0.70;0.60;;;23.60;72.90;;;;;;5058982;28;21288;-88
2022/07/17 08:55:29;;;;;;;0.60;0.50;;;23.30;72.70;;;;;;5055532;28;20584;-87
2022/07/17 08:57:56;;;;;;;0.60;0.60;;;23.50;70.70;;;;;;5063065;28;20464;-87
2022/07/17 09:00:25;;;;;;;1.13;0.50;;;23.80;71.80;;;;;;5057004;28;21384;-88
2022/07/17 09:02:58;;;;;;;0.60;0.50;;;23.90;70.10;;;;;;5056843;28;21002;-87
2022/07/17 09:05:28;;;;;;;0.60;0.60;;;23.70;74.80;;;;;;5054304;28;20677;-88
2022/07/17 09:07:57;;;;;;;0.60;0.60;;;23.90;73.60;;;;;;5049026;28;21101;-87
2022/07/17 09:10:36;;;;;;;0.60;0.60;;;24.10;77.20;;;;;;5048709;28;20460;-87
2022/07/17 09:13:14;;;;;;;0.80;0.70;;;24.10;70.60;;;;;;5054934;28;21939;-86
2022/07/17 09:15:42;;;;;;;0.50;0.47;;;24.00;71.10;;;;;;5058417;28;20509;-86
2022/07/17 09:18:09;;;;;;;0.50;0.50;;;24.30;77.50;;;;;;5056526;28;20469;-85
2022/07/17 09:20:39;;;;;;;1.93;0.70;;;24.40;72.30;;;;;;5054348;28;20479;-86
2022/07/17 09:23:07;;;;;;;0.70;0.50;;;24.60;71.40;;;;;;5060961;28;20463;-84
2022/07/17 09:25:37;;;;;;;0.60;0.60;;;24.50;66.10;;;;;;5059806;28;20471;-84
2022/07/17 09:28:06;;;;;;;1.40;1.13;;;24.10;66.30;;;;;;5060989;28;20462;-85
2022/07/17 09:30:33;;;;;;;1.87;1.77;;;24.50;75.00;;;;;;5059537;28;20456;-86
2022/07/17 09:33:00;;;;;;;0.70;0.50;;;24.60;66.90;;;;;;5060308;28;20455;-86
2022/07/17 09:35:28;;;;;;;0.80;0.60;;;24.50;66.50;;;;;;5056734;28;20488;-87
2022/07/17 09:37:55;;;;;;;0.93;0.60;;;24.50;68.50;;;;;;5057860;28;20444;-86
2022/07/17 09:43:09;;;;;;;2.70;2.40;;;24.40;64.20;;;;;;5058611;28;20447;-87
2022/07/17 09:45:36;;;;;;;0.80;0.70;;;24.80;67.00;;;;;;5058554;28;20549;-87
2022/07/17 09:48:04;;;;;;;0.60;0.60;;;25.40;70.10;;;;;;5061993;28;20476;-86
2022/07/17 09:50:33;;;;;;;1.00;0.60;;;24.90;60.30;;;;;;5058848;28;21225;-85
2022/07/17 09:53:02;;;;;;;0.60;0.50;;;24.90;60.00;;;;;;5054486;28;20563;-85
2022/07/17 09:55:31;;;;;;;0.87;0.50;;;25.20;61.90;;;;;;5056726;28;21174;-85
2022/07/17 09:58:01;;;;;;;1.00;0.50;;;25.20;62.90;;;;;;5057803;28;20547;-85
2022/07/17 10:00:29;;;;;;;0.60;0.60;;;25.00;63.50;;;;;;5068455;28;21221;-86
2022/07/17 10:02:56;;;;;;;2.90;0.60;;;25.10;61.80;;;;;;5065183;28;20463;-87
2022/07/17 10:05:24;;;;;;;12.93;2.00;;;25.40;60.50;;;;;;5059741;28;20463;-87
2022/07/17 10:07:51;;;;;;;0.90;0.70;;;25.90;63.20;;;;;;5059943;28;20459;-88
2022/07/17 10:10:19;;;;;;;1.77;0.57;;;26.10;59.80;;;;;;5061694;28;20455;-87
2022/07/17 10:12:50;;;;;;;1.27;1.10;;;26.00;63.40;;;;;;5056517;28;20462;-87
2022/07/17 10:15:19;;;;;;;1.73;0.67;;;25.50;61.90;;;;;;5052657;28;21030;-86
2022/07/17 10:17:47;;;;;;;0.90;0.70;;;25.20;60.60;;;;;;5056671;28;20566;-83
2022/07/17 10:20:25;;;;;;;0.60;0.60;;;25.30;60.70;;;;;;5055694;28;20506;-84
2022/07/17 10:22:52;;;;;;;0.60;0.60;;;25.00;59.10;;;;;;5052446;28;20468;-85
2022/07/17 10:25:19;;;;;;;0.70;0.60;;;25.20;66.70;;;;;;5059648;28;20488;-85
2022/07/17 10:27:50;;;;;;;0.70;0.60;;;25.30;62.60;;;;;;5069167;28;20452;-84
2022/07/17 10:30:26;;;;;;;1.90;0.60;;;24.80;59.60;;;;;;5065532;28;20950;-84
2022/07/17 10:32:56;;;;;;;0.93;0.70;;;24.60;57.80;;;;;;5065725;28;20479;-84
2022/07/17 10:35:23;;;;;;;0.70;0.70;;;25.00;57.90;;;;;;5061787;28;20834;-85
2022/07/17 10:37:50;;;;;;;0.70;0.70;;;25.00;57.00;;;;;;5063308;28;20560;-84
2022/07/17 10:40:21;;;;;;;0.60;0.57;;;24.70;58.50;;;;;;5054623;28;20456;-87
2022/07/17 10:43:00;;;;;;;1.40;0.60;;;24.90;58.00;;;;;;5062770;28;20456;-86
2022/07/17 10:45:33;;;;;;;0.90;0.70;;;24.70;56.80;;;;;;5065997;28;20455;-86
2022/07/17 10:48:03;;;;;;;0.80;0.60;;;24.90;55.60;;;;;;5056815;28;20511;-87
2022/07/17 10:50:35;;;;;;;0.70;0.60;;;25.20;56.40;;;;;;5061350;28;20456;-87
2022/07/17 10:53:05;;;;;;;0.77;0.63;;;25.40;57.80;;;;;;5065217;28;20459;-86
2022/07/17 10:55:34;;;;;;;0.90;0.73;;;25.70;60.20;;;;;;5049418;28;20460;-89
2022/07/17 10:58:03;;;;;;;0.60;0.60;;;25.80;54.90;;;;;;5055014;28;20541;-87
2022/07/17 11:00:30;;;;;;;0.60;0.50;;;25.70;55.70;;;;;;5049908;28;20472;-89
2022/07/17 11:02:57;;;;;;;0.83;0.83;;;25.70;57.90;;;;;;5056235;28;20459;-84
2022/07/17 11:05:24;;;;;;;0.80;0.60;;;25.50;57.70;;;;;;5064616;28;20498;-85
2022/07/17 11:07:57;;;;;;;0.60;0.60;;;25.60;62.50;;;;;;5057119;28;21247;-84
2022/07/17 11:10:28;;;;;;;1.00;0.60;;;25.50;64.00;;;;;;5054484;28;20829;-84
2022/07/17 11:13:07;;;;;;;0.50;0.50;;;25.60;57.60;;;;;;5056311;28;20587;-85
2022/07/17 11:15:41;;;;;;;1.77;0.63;;;25.70;59.00;;;;;;5054040;28;20524;-85
2022/07/17 11:18:13;;;;;;;0.50;0.40;;;25.70;56.20;;;;;;5056679;28;20500;-84
2022/07/17 11:20:52;;;;;;;0.90;0.63;;;25.70;57.80;;;;;;5063175;28;20482;-84
2022/07/17 11:23:19;;;;;;;0.70;0.57;;;25.60;58.90;;;;;;5054392;28;22265;-85
2022/07/17 11:25:58;;;;;;;2.77;0.70;;;25.50;54.50;;;;;;5052945;28;21053;-85
2022/07/17 11:28:33;;;;;;;1.20;0.70;;;25.60;55.20;;;;;;5061257;28;20652;-86
2022/07/17 11:31:03;;;;;;;1.20;0.83;;;25.70;57.00;;;;;;5059792;28;20456;-84
2022/07/17 11:33:31;;;;;;;0.60;0.60;;;25.60;54.70;;;;;;5057981;28;20457;-85
2022/07/17 11:35:59;;;;;;;0.70;0.70;;;25.50;58.00;;;;;;5061010;28;20459;-84
2022/07/17 11:38:30;;;;;;;0.50;0.50;;;25.60;53.10;;;;;;5056977;28;20518;-84
2022/07/17 11:40:57;;;;;;;1.90;0.80;;;25.60;55.50;;;;;;5066000;28;20467;-86
2022/07/17 11:43:24;;;;;;;0.80;0.70;;;25.70;55.30;;;;;;5062747;28;20997;-87
2022/07/17 11:45:51;;;;;;;0.60;0.60;;;25.70;55.70;;;;;;5061404;28;20459;-84
2022/07/17 11:48:20;;;;;;;1.03;0.70;;;25.70;53.30;;;;;;5062689;28;20471;-84
2022/07/17 11:50:55;;;;;;;0.70;0.70;;;25.80;55.20;;;;;;5062316;28;20868;-85
2022/07/17 11:53:32;;;;;;;0.60;0.60;;;25.70;56.80;;;;;;5061358;28;20466;-85
2022/07/17 11:56:00;;;;;;;2.50;0.70;;;25.20;56.40;;;;;;5058757;28;20535;-85
2022/07/17 11:58:27;;;;;;;0.67;0.67;;;25.50;57.00;;;;;;5059706;28;21050;-85
2022/07/17 12:01:02;;;;;;;0.70;0.70;;;25.60;57.70;;;;;;5058915;28;20548;-85
2022/07/17 12:03:30;;;;;;;1.00;1.00;;;26.00;57.50;;;;;;5058926;28;20474;-84
2022/07/17 12:05:58;;;;;;;0.90;0.90;;;26.40;58.30;;;;;;5053885;28;20452;-85
2022/07/17 12:08:25;;;;;;;0.67;0.67;;;26.50;55.80;;;;;;5062663;28;20519;-88
2022/07/17 12:11:01;;;;;;;1.53;0.70;;;26.20;54.30;;;;;;5060175;28;20539;-86
2022/07/17 12:13:42;;;;;;;1.03;0.93;;;26.10;55.30;;;;;;5051475;28;21013;-86
2022/07/17 12:16:28;;;;;;;0.70;0.60;;;25.80;55.30;;;;;;5055462;28;20507;-86
2022/07/17 12:19:03;;;;;;;0.60;0.60;;;25.90;56.00;;;;;;5059947;28;20473;-86
2022/07/17 12:21:32;;;;;;;1.03;0.60;;;25.80;54.00;;;;;;5055432;28;20479;-86
2022/07/17 12:24:04;;;;;;;0.97;0.90;;;25.80;57.60;;;;;;5054717;28;20473;-87
2022/07/17 12:26:32;;;;;;;1.10;0.70;;;26.00;55.30;;;;;;5054276;28;20453;-86
2022/07/17 12:29:00;;;;;;;0.60;0.60;;;26.00;56.00;;;;;;5062256;28;20457;-86
2022/07/17 12:31:27;;;;;;;0.67;0.67;;;26.00;55.80;;;;;;5056074;28;20457;-87
2022/07/17 12:33:55;;;;;;;1.90;0.73;;;25.80;56.40;;;;;;5047222;28;20476;-86
2022/07/17 12:36:24;;;;;;;0.60;0.60;;;25.60;54.50;;;;;;5055769;28;21209;-88
2022/07/17 12:38:52;;;;;;;0.70;0.60;;;25.60;53.00;;;;;;5049598;28;20460;-86
2022/07/17 12:41:19;;;;;;;0.60;0.60;;;25.80;53.20;;;;;;5048483;28;20528;-87
2022/07/17 12:43:46;;;;;;;0.60;0.57;;;25.90;52.10;;;;;;5054685;28;20455;-88
2022/07/17 12:46:13;;;;;;;1.20;0.80;;;26.20;54.80;;;;;;5053272;28;20459;-87
2022/07/17 12:48:42;;;;;;;0.87;0.60;;;26.40;51.40;;;;;;5056220;28;20503;-86
2022/07/17 12:51:12;;;;;;;1.83;1.40;;;26.40;50.60;;;;;;5052075;28;20456;-87
2022/07/17 12:53:41;;;;;;;3.10;0.67;;;26.60;51.80;;;;;;5050902;28;20555;-86
2022/07/17 12:56:09;;;;;;;0.70;0.67;;;26.30;51.00;;;;;;5051674;28;20492;-86